Nearby METAR Reports

 

KIKK - Kankakee, Illinois, USA
Distance from station: S 7mi, 12km
Updated: Sat, 15-Dec-2018 12:55am CST
Mist, Mostly cloudy
Mist, Mostly cloudy
 Wind from NE
Wind: NE 7 mph , 11 km/h
Temperature: 34°F , 1°C
Wind Chill: 28°F , -2°C
Dew Point: 34°F , 1°C
Humidity: 100%
Barometer: 30.14 inHg , 1020.7 hPa
Summary: Mist
Clouds: Mostly cloudy
Visibility: 2 1/2 miles , 4 km
Cloud details: Mostly cloudy 500 ft
2018/12/15 06:55 KIKK 150655Z AUTO 04006KT 2 1/2SM BR BKN005 01/01 A3014 RMK AO2 T00080005
KIGQ - Chicago/Lansing, Illinois, USA
Distance from station: NNE 29mi, 47km
Updated: Sat, 15-Dec-2018 1:15am CST
Mist, Overcast
Mist, Overcast
 Wind from calm
Wind: Calm
Temperature: 36°F , 2°C
Dew Point: 34°F , 1°C
Humidity: 93%
Barometer: 30.16 inHg , 1021.3 hPa
Summary: Mist
Clouds: Overcast
Visibility: 2 miles , 3 km
Cloud details: Overcast 500 ft
2018/12/15 07:15 KIGQ 150715Z AUTO 00000KT 2SM BR OVC005 02/01 A3016 RMK AO2 T00170012
 
KJOT - Joliet, Illinois, USA
Distance from station: NW 30mi, 48km
Updated: Sat, 15-Dec-2018 1:15am CST
Mist, Partly cloudy
Mist, Partly cloudy
 Wind from N
Wind: N 5 mph , 7 km/h
Temperature: 32°F , 0°C
Wind Chill: 27°F , -3°C
Dew Point: 32°F , 0°C
Humidity: 100%
Barometer: 30.15 inHg , 1021 hPa
Summary: Mist
Clouds: Partly cloudy
Visibility: 1 1/2 miles , 2.4 km
Cloud details: Partly cloudy 200 ft
2018/12/15 07:15 KJOT 150715Z AUTO 01004KT 1 1/2SM BR SCT002 00/00 A3015 RMK AO2 T00000000
KLOT - Romeoville/Chi, Illinois, USA
Distance from station: NNW 34mi, 55km
Updated: Sat, 15-Dec-2018 12:55am CST
Mist, Mostly cloudy
Mist, Mostly cloudy
 Wind from ENE
Wind: ENE 5 mph , 7 km/h
Temperature: 30°F , -1°C
Wind Chill: 25°F , -4°C
Dew Point: 30°F , -1°C
Humidity: 100%
Barometer: 30.16 inHg , 1021.3 hPa
Summary: Mist
Clouds: Mostly cloudy
Visibility: 1 1/4 miles , 2 km
Cloud details: Mostly cloudy 200 ft
2018/12/15 06:55 KLOT 150655Z AUTO 07004KT 1 1/4SM BR BKN002 M01/M01 A3016 RMK AO2 T10081009
 
KC09 - Morris-Washburn, Illinois, USA
Distance from station: WNW 36mi, 58km
Updated: Sat, 15-Dec-2018 1:15am CST
Freezing fog, Overcast
Freezing fog, Overcast
 Wind from N
Wind: N 3 mph , 6 km/h
Temperature: 30°F , -1°C
Dew Point: 30°F , -1°C
Humidity: 100%
Barometer: 30.15 inHg , 1021 hPa
Summary: Freezing Fog
Clouds: Overcast
Visibility: 1/4 mile , 0.4 km
Cloud details: Overcast 200 ft
2018/12/15 07:15 KC09 150715Z AUTO 35003KT 1/4SM FZFG OVC002 M01/M01 A3015 RMK AO2 T10071010
KRZL - Rensselaer, Indiana, USA
Distance from station: ESE 37mi, 59km
Updated: Sat, 15-Dec-2018 1:15am CST
Clear
Clear
 Wind from N
Wind: N 8 mph , 13 km/h
Temperature: 36°F , 2°C
Wind Chill: 30°F , -1°C
Dew Point: 34°F , 1°C
Humidity: 93%
Barometer: 30.12 inHg , 1020 hPa
Clouds: Clear
Visibility: 7 miles , 11 km
2018/12/15 07:15 KRZL 150715Z AUTO 01007KT 7SM CLR 02/01 A3012 RMK AO2
 
KGYY - Gary Regional, Indiana, USA
Distance from station: NE 37mi, 60km
Updated: Sat, 15-Dec-2018 1:15am CST
Mist, Overcast
Mist, Overcast
 Wind from NNE
Wind: NNE 6 mph , 9 km/h
Temperature: 39°F , 4°C
Wind Chill: 35°F , 2°C
Dew Point: 39°F , 4°C
Humidity: 100%
Barometer: 30.17 inHg , 1021.7 hPa
Summary: Mist
Clouds: Overcast
Visibility: 2 1/2 miles , 4 km
Cloud details: Overcast 600 ft
2018/12/15 07:15 KGYY 150715Z AUTO 02005KT 2 1/2SM BR OVC006 04/04 A3017 RMK AO2 T00360036
KMDW - Chicago, Illinois, USA
Distance from station: N 42mi, 68km
Updated: Sat, 15-Dec-2018 12:53am CST
Mist, Mostly cloudy
Mist, Mostly cloudy
 Wind from N
Wind: N 6 mph , 9 km/h
Temperature: 34°F , 1°C
Wind Chill: 29°F , -2°C
Dew Point: 34°F , 1°C
Humidity: 100%
Barometer: 30.15 inHg , 1021 hPa
Summary: Mist
Clouds: Mostly cloudy
Visibility: 2 miles , 3 km
Cloud details: Mostly cloudy 25000 ft
2018/12/15 06:53 KMDW 150653Z 01005KT 2SM BR BKN250 01/01 A3015 RMK AO2 SLP220 T00110006
 
KPNT - Pontiac, Illinois, USA
Distance from station: WSW 46mi, 74km
Updated: Sat, 15-Dec-2018 1:15am CST
Light drizzle, Overcast
Light drizzle, Overcast
 Wind from NE
Wind: NE 9 mph , 15 km/h
Temperature: 34°F , 1°C
Wind Chill: 27°F , -3°C
Dew Point: 34°F , 1°C
Humidity: 100%
Barometer: 30.14 inHg , 1020.7 hPa
Summary: Light Drizzle
Clouds: Overcast
Visibility: 1/4 mile , 0.4 km
Cloud details: Overcast 300 ft
2018/12/15 07:15 KPNT 150715Z AUTO 04008KT 1/4SM -DZ OVC003 01/01 A3014 RMK AO2 T00080005
KVPZ - Valparaiso, Indiana, USA
Distance from station: ENE 47mi, 75km
Updated: Sat, 15-Dec-2018 12:56am CST
Mist, Clear
Mist, Clear
 Wind from NNE
Wind: NNE 5 mph , 7 km/h
Temperature: 36°F , 2°C
Wind Chill: 32°F , 0°C
Dew Point: 30°F , -1°C
Humidity: 81%
Barometer: 30.14 inHg , 1020.7 hPa
Summary: Mist
Clouds: Clear
Visibility: 6 miles , 10 km
2018/12/15 06:56 KVPZ 150656Z AUTO 03004KT 6SM BR CLR 02/M01 A3014 RMK AO2 SLP212 T00171006